createdAt,value
2018-12-24T00:02:06.983Z,6.10
2018-12-24T00:04:36.769Z,6.10
2018-12-24T00:07:34.758Z,6.10
2018-12-24T00:10:05.257Z,6.10
2018-12-24T00:12:34.710Z,6.10
2018-12-24T00:15:04.166Z,6.00
2018-12-24T00:17:33.823Z,6.00
2018-12-24T00:20:04.613Z,5.90
2018-12-24T00:22:34.320Z,5.90
2018-12-24T00:25:03.719Z,5.90
2018-12-24T00:27:37.474Z,6.00
2018-12-24T00:30:08.004Z,6.00
2018-12-24T00:32:37.691Z,6.10
2018-12-24T00:35:07.147Z,6.10
2018-12-24T00:37:37.022Z,6.20
2018-12-24T00:40:07.089Z,6.20
2018-12-24T00:42:36.851Z,6.20
2018-12-24T00:45:07.210Z,6.20
2018-12-24T00:47:36.826Z,6.20
2018-12-24T00:50:06.297Z,6.10
2018-12-24T00:52:36.323Z,6.10
2018-12-24T00:55:05.974Z,6.10
2018-12-24T00:57:35.898Z,6.00
2018-12-24T01:00:09.079Z,6.00
2018-12-24T01:02:39.185Z,5.90
2018-12-24T01:05:08.640Z,5.90
2018-12-24T01:07:41.780Z,5.80
2018-12-24T01:10:11.584Z,5.80
2018-12-24T01:12:42.147Z,5.70
2018-12-24T01:15:12.918Z,5.70
2018-12-24T01:17:42.784Z,5.60
2018-12-24T01:20:13.051Z,5.60
2018-12-24T01:22:53.956Z,5.60
2018-12-24T01:25:23.282Z,5.60
2018-12-24T01:27:52.918Z,5.60
2018-12-24T01:30:22.727Z,5.70
2018-12-24T01:32:53.030Z,5.70
2018-12-24T01:35:23.319Z,5.60
2018-12-24T01:37:52.693Z,5.60
2018-12-24T01:40:22.090Z,5.60
2018-12-24T01:42:51.766Z,5.50
2018-12-24T01:45:21.194Z,5.50
2018-12-24T01:47:51.841Z,5.50
2018-12-24T01:50:22.107Z,5.40
2018-12-24T01:52:51.697Z,5.40
2018-12-24T01:55:21.922Z,5.40
2018-12-24T01:57:51.838Z,5.50
2018-12-24T02:00:21.524Z,5.50
2018-12-24T02:02:51.393Z,5.50
2018-12-24T02:05:21.464Z,5.60
2018-12-24T02:07:54.249Z,5.60
2018-12-24T02:10:23.606Z,5.60
2018-12-24T02:12:53.861Z,5.60
2018-12-24T02:15:23.270Z,5.60
2018-12-24T02:17:52.613Z,5.60
2018-12-24T02:20:21.954Z,5.60
2018-12-24T02:22:52.610Z,5.60
2018-12-24T02:25:23.748Z,5.60
2018-12-24T02:27:53.188Z,5.60
2018-12-24T02:30:22.841Z,5.60
2018-12-24T02:32:52.574Z,5.60
2018-12-24T02:35:23.331Z,5.70
2018-12-24T02:37:53.631Z,5.70
2018-12-24T02:40:23.884Z,5.70
2018-12-24T02:42:53.915Z,5.70
2018-12-24T02:45:23.256Z,5.70
2018-12-24T02:47:52.608Z,5.70
2018-12-24T02:50:22.760Z,5.70
2018-12-24T02:52:53.100Z,5.70
2018-12-24T02:55:25.667Z,5.60
2018-12-24T02:57:55.053Z,5.60
2018-12-24T03:03:02.048Z,5.60
2018-12-24T03:05:32.433Z,5.60
2018-12-24T03:08:01.794Z,5.60
2018-12-24T03:10:34.159Z,5.60
2018-12-24T03:13:03.507Z,5.60
2018-12-24T03:15:35.560Z,5.70
2018-12-24T03:18:05.143Z,5.70
2018-12-24T03:20:34.617Z,5.80
2018-12-24T03:23:04.132Z,5.90
2018-12-24T03:25:35.521Z,5.90
2018-12-24T03:28:04.879Z,5.90
2018-12-24T03:30:34.333Z,5.90
2018-12-24T03:33:04.043Z,5.90
2018-12-24T03:35:37.538Z,6.00
2018-12-24T03:38:07.030Z,6.00
2018-12-24T03:40:39.738Z,6.00
2018-12-24T03:43:12.933Z,6.10
2018-12-24T03:45:42.959Z,6.10
2018-12-24T03:48:12.343Z,6.20
2018-12-24T03:50:44.968Z,6.20
2018-12-24T03:53:14.425Z,6.20
2018-12-24T03:55:44.767Z,6.20
2018-12-24T03:58:15.245Z,6.30
2018-12-24T04:00:45.052Z,6.30
2018-12-24T04:03:14.356Z,6.40
2018-12-24T04:05:43.770Z,6.40
2018-12-24T04:08:14.234Z,6.40
2018-12-24T04:10:43.878Z,6.40
2018-12-24T04:13:22.172Z,6.50
2018-12-24T04:15:44.464Z,6.50
2018-12-24T04:18:18.113Z,6.50
2018-12-24T04:20:47.963Z,6.50
2018-12-24T04:23:17.410Z,6.50
2018-12-24T04:25:46.984Z,6.50
2018-12-24T04:28:20.242Z,6.50
2018-12-24T04:30:50.219Z,6.50
2018-12-24T04:33:26.057Z,6.50
2018-12-24T04:35:55.706Z,6.50
2018-12-24T04:38:25.173Z,6.40
2018-12-24T04:40:54.716Z,6.40
2018-12-24T04:43:32.226Z,6.40
2018-12-24T04:45:56.577Z,6.30
2018-12-24T04:48:27.714Z,6.40
2018-12-24T04:50:58.164Z,6.30
2018-12-24T04:53:35.112Z,6.30
2018-12-24T04:56:04.461Z,6.40
2018-12-24T04:58:33.774Z,6.40
2018-12-24T05:01:03.196Z,6.50
2018-12-24T05:03:32.978Z,6.50
2018-12-24T05:06:03.142Z,6.50
2018-12-24T05:08:32.472Z,6.50
2018-12-24T05:11:05.904Z,6.50
2018-12-24T05:13:40.793Z,6.50
2018-12-24T05:16:06.863Z,6.50
2018-12-24T05:18:36.215Z,6.50
2018-12-24T05:21:08.155Z,6.50
2018-12-24T05:23:37.864Z,6.50
2018-12-24T05:26:07.357Z,6.50
2018-12-24T05:28:38.965Z,6.50
2018-12-24T05:31:09.489Z,6.50
2018-12-24T05:33:38.984Z,6.50
2018-12-24T05:36:09.404Z,6.50
2018-12-24T05:38:39.143Z,6.50
2018-12-24T05:41:09.028Z,6.50
2018-12-24T05:43:39.658Z,6.50
2018-12-24T05:46:08.969Z,6.40
2018-12-24T05:48:38.291Z,6.40
2018-12-24T05:51:07.673Z,6.30
2018-12-24T05:53:38.020Z,6.40
2018-12-24T05:56:07.652Z,6.30
2018-12-24T05:58:36.926Z,6.40
2018-12-24T06:01:06.338Z,6.40
2018-12-24T06:03:35.677Z,6.40
2018-12-24T06:06:05.245Z,6.40
2018-12-24T06:08:37.544Z,6.40
2018-12-24T06:11:07.598Z,6.40
2018-12-24T06:13:37.289Z,6.40
2018-12-24T06:16:07.625Z,6.40
2018-12-24T06:18:38.729Z,6.30
2018-12-24T06:21:08.367Z,6.30
2018-12-24T06:23:41.448Z,6.30
2018-12-24T06:26:10.831Z,6.30
2018-12-24T06:28:41.923Z,6.30
2018-12-24T06:31:14.663Z,6.30
2018-12-24T06:33:44.956Z,6.30
2018-12-24T06:36:14.378Z,6.20
2018-12-24T06:38:44.262Z,6.20
2018-12-24T06:41:13.490Z,6.20
2018-12-24T06:43:43.188Z,6.20
2018-12-24T06:46:15.992Z,6.20
2018-12-24T06:48:45.230Z,6.20
2018-12-24T06:51:22.321Z,6.20
2018-12-24T06:53:51.671Z,6.10
2018-12-24T06:56:25.167Z,6.10
2018-12-24T06:58:54.996Z,6.10
2018-12-24T07:01:24.615Z,6.10
2018-12-24T07:03:53.933Z,6.10
2018-12-24T07:06:26.485Z,6.10
2018-12-24T07:08:55.897Z,6.10
2018-12-24T07:11:25.506Z,6.10
2018-12-24T07:13:58.083Z,6.20
2018-12-24T07:16:27.609Z,6.20
2018-12-24T07:18:59.336Z,6.10
2018-12-24T07:21:35.209Z,6.20
2018-12-24T07:24:04.787Z,6.20
2018-12-24T07:26:34.787Z,6.20
2018-12-24T07:29:08.075Z,6.20
2018-12-24T07:31:37.637Z,6.20
2018-12-24T07:34:07.313Z,6.20
2018-12-24T07:36:37.705Z,6.20
2018-12-24T07:39:09.077Z,6.20
2018-12-24T07:41:40.049Z,6.20
2018-12-24T07:44:09.857Z,6.20
2018-12-24T07:46:41.411Z,6.30
2018-12-24T07:49:11.583Z,6.20
2018-12-24T07:51:41.703Z,6.20
2018-12-24T07:54:11.012Z,6.20
2018-12-24T07:56:40.358Z,6.20
2018-12-24T07:59:09.829Z,6.20
2018-12-24T08:01:43.077Z,6.20
2018-12-24T08:04:12.431Z,6.20
2018-12-24T08:06:42.305Z,6.10
2018-12-24T08:09:12.727Z,6.20
2018-12-24T08:11:42.247Z,6.10
2018-12-24T08:14:11.651Z,6.10
2018-12-24T08:16:41.180Z,6.00
2018-12-24T08:19:10.814Z,5.90
2018-12-24T08:21:40.817Z,5.80
2018-12-24T08:24:10.598Z,5.70
2018-12-24T08:26:40.762Z,5.60
2018-12-24T08:29:10.414Z,5.50
2018-12-24T08:31:40.161Z,5.50
2018-12-24T08:38:35.221Z,5.50
2018-12-24T08:41:05.889Z,5.50
2018-12-24T08:43:35.120Z,5.60
2018-12-24T08:46:04.811Z,5.60
2018-12-24T08:48:33.818Z,5.60
2018-12-24T08:53:38.465Z,5.70
2018-12-24T08:56:11.112Z,5.70
2018-12-24T08:58:40.211Z,5.70
2018-12-24T09:01:09.922Z,5.70
2018-12-24T09:03:42.591Z,5.80
2018-12-24T09:06:11.760Z,5.80
2018-12-24T09:08:40.716Z,5.80
2018-12-24T09:11:10.662Z,5.90
2018-12-24T09:16:16.797Z,5.90
2018-12-24T09:18:45.935Z,5.90
2018-12-24T09:21:15.465Z,5.90
2018-12-24T09:23:44.867Z,5.90
2018-12-24T09:26:13.904Z,5.80
2018-12-24T09:28:42.994Z,5.80
2018-12-24T09:31:12.712Z,5.80
2018-12-24T09:33:43.949Z,5.80
2018-12-24T09:36:13.630Z,5.70
2018-12-24T09:38:47.573Z,5.70
2018-12-24T09:41:16.913Z,5.80
2018-12-24T09:43:46.015Z,5.80
2018-12-24T09:46:15.283Z,5.90
2018-12-24T09:48:44.273Z,5.90
2018-12-24T09:51:14.942Z,5.90
2018-12-24T09:53:44.696Z,5.90
2018-12-24T09:56:14.690Z,6.00
2018-12-24T09:58:44.026Z,6.10
2018-12-24T10:01:13.091Z,6.10
2018-12-24T10:03:50.009Z,6.20
2018-12-24T10:06:23.805Z,6.30
2018-12-24T10:08:54.240Z,6.40
2018-12-24T10:11:23.225Z,6.40
2018-12-24T10:13:52.201Z,6.50
2018-12-24T10:16:21.189Z,6.50
2018-12-24T10:18:50.134Z,6.60
2018-12-24T10:21:19.081Z,6.70
2018-12-24T10:23:48.703Z,6.70
2018-12-24T10:26:17.707Z,6.70
2018-12-24T10:28:46.741Z,6.70
2018-12-24T10:31:15.835Z,6.80
2018-12-24T10:33:44.812Z,6.80
2018-12-24T10:36:14.288Z,6.90
2018-12-24T10:38:43.578Z,6.90
2018-12-24T10:41:15.511Z,7.00
2018-12-24T10:43:44.507Z,7.00
2018-12-24T10:46:13.432Z,7.00
2018-12-24T10:48:42.493Z,7.10
2018-12-24T10:51:11.587Z,7.10
2018-12-24T10:53:43.680Z,7.10
2018-12-24T10:56:12.576Z,7.10
2018-12-24T10:58:44.391Z,7.10
2018-12-24T11:01:13.617Z,7.10
2018-12-24T11:03:42.527Z,7.20
2018-12-24T11:06:12.772Z,7.20
2018-12-24T11:08:42.225Z,7.10
2018-12-24T11:11:14.294Z,7.10
2018-12-24T11:13:43.418Z,7.00
2018-12-24T11:16:12.501Z,7.00
2018-12-24T11:18:41.901Z,6.90
2018-12-24T11:21:11.808Z,6.90
2018-12-24T11:23:40.681Z,6.80
2018-12-24T11:26:09.640Z,6.80
2018-12-24T11:28:38.578Z,6.90
2018-12-24T11:31:10.909Z,6.90
2018-12-24T11:33:40.148Z,6.90
2018-12-24T11:36:09.147Z,6.90
2018-12-24T11:38:38.924Z,6.90
2018-12-24T11:41:07.943Z,6.90
2018-12-24T11:43:36.953Z,7.00
2018-12-24T11:46:05.940Z,7.00
2018-12-24T11:48:34.986Z,7.00
2018-12-24T11:51:04.231Z,7.10
2018-12-24T11:53:33.260Z,7.10
2018-12-24T11:56:14.857Z,7.10
2018-12-24T11:58:44.263Z,7.20
2018-12-24T12:01:13.494Z,7.20
2018-12-24T12:03:43.033Z,7.30
2018-12-24T12:06:19.502Z,7.30
2018-12-24T12:08:45.825Z,7.30
2018-12-24T12:11:15.448Z,7.30
2018-12-24T12:13:44.510Z,7.40
2018-12-24T12:16:13.640Z,7.40
2018-12-24T12:18:43.130Z,7.40
2018-12-24T12:21:15.297Z,7.40
2018-12-24T12:23:48.767Z,7.40
2018-12-24T12:26:17.763Z,7.40
2018-12-24T12:28:47.032Z,7.40
2018-12-24T12:31:16.429Z,7.40
2018-12-24T12:33:48.520Z,7.40
2018-12-24T12:36:17.524Z,7.40
2018-12-24T12:38:47.037Z,7.50
2018-12-24T12:41:16.611Z,7.40
2018-12-24T12:43:45.422Z,7.40
2018-12-24T12:46:16.300Z,7.40
2018-12-24T12:48:45.297Z,7.50
2018-12-24T12:51:14.854Z,7.40
2018-12-24T12:53:44.054Z,7.40
2018-12-24T12:56:12.900Z,7.40
2018-12-24T12:58:42.092Z,7.40
2018-12-24T13:01:11.247Z,7.40
2018-12-24T13:03:40.203Z,7.50
2018-12-24T13:06:09.124Z,7.50
2018-12-24T13:08:37.973Z,7.50
2018-12-24T13:11:07.319Z,7.60
2018-12-24T13:13:36.878Z,7.70
2018-12-24T13:16:06.264Z,7.70
2018-12-24T13:18:36.332Z,7.70
2018-12-24T13:21:05.682Z,7.70
2018-12-24T13:26:09.337Z,7.60
2018-12-24T13:28:38.779Z,7.60
2018-12-24T13:31:08.150Z,7.60
2018-12-24T13:33:37.452Z,7.60
2018-12-24T13:36:09.951Z,7.70
2018-12-24T13:38:39.121Z,7.70
2018-12-24T13:41:09.010Z,7.70
2018-12-24T13:43:38.720Z,7.70
2018-12-24T13:46:09.242Z,7.70
2018-12-24T13:48:42.204Z,7.70
2018-12-24T13:51:19.731Z,7.70
2018-12-24T13:53:48.443Z,7.80
2018-12-24T13:56:22.364Z,7.80
2018-12-24T13:58:51.209Z,7.90
2018-12-24T14:01:22.073Z,7.90
2018-12-24T14:03:54.570Z,7.90
2018-12-24T14:06:23.590Z,7.90
2018-12-24T14:08:53.231Z,8.00
2018-12-24T14:11:23.789Z,8.00
2018-12-24T14:13:53.636Z,8.00
2018-12-24T14:16:22.933Z,8.10
2018-12-24T14:18:52.324Z,8.10
2018-12-24T14:21:23.025Z,8.10
2018-12-24T14:23:51.926Z,8.10
2018-12-24T14:26:21.089Z,8.20
2018-12-24T14:28:50.368Z,8.20
2018-12-24T14:31:19.470Z,8.20
2018-12-24T14:33:48.976Z,8.10
2018-12-24T14:36:18.617Z,8.10
2018-12-24T14:38:53.245Z,8.00
2018-12-24T14:41:22.949Z,8.00
2018-12-24T14:43:52.107Z,8.00
2018-12-24T14:46:25.708Z,8.00
2018-12-24T14:48:57.469Z,8.10
2018-12-24T14:51:54.051Z,8.10
2018-12-24T14:54:23.048Z,8.10
2018-12-24T14:56:52.302Z,8.10
2018-12-24T14:59:23.221Z,8.10
2018-12-24T15:01:52.206Z,8.10
2018-12-24T15:04:23.234Z,8.00
2018-12-24T15:06:55.906Z,8.00
2018-12-24T15:09:25.043Z,8.00
2018-12-24T15:11:54.415Z,8.00
2018-12-24T15:14:23.761Z,8.00
2018-12-24T15:16:52.841Z,8.00
2018-12-24T15:19:21.870Z,8.00
2018-12-24T15:21:56.021Z,8.00
2018-12-24T15:24:28.110Z,7.90
2018-12-24T15:26:57.321Z,7.90
2018-12-24T15:29:27.233Z,7.80
2018-12-24T15:31:56.588Z,7.80
2018-12-24T15:34:27.798Z,7.70
2018-12-24T15:37:00.425Z,7.70
2018-12-24T15:39:29.780Z,7.60
2018-12-24T15:41:59.123Z,7.70
2018-12-24T15:44:28.314Z,7.60
2018-12-24T15:47:03.207Z,7.60
2018-12-24T15:49:32.701Z,7.60
2018-12-24T15:52:05.288Z,7.50
2018-12-24T15:54:36.143Z,7.50
2018-12-24T15:57:05.524Z,7.40
2018-12-24T15:59:34.755Z,7.50
2018-12-24T16:02:03.921Z,7.50
2018-12-24T16:04:32.895Z,7.50
2018-12-24T16:07:01.833Z,7.40
2018-12-24T16:09:31.355Z,7.40
2018-12-24T16:12:03.729Z,7.40
2018-12-24T16:14:32.798Z,7.40
2018-12-24T16:17:04.561Z,7.40
2018-12-24T16:19:33.507Z,7.30
2018-12-24T16:22:06.642Z,7.40
2018-12-24T16:24:35.600Z,7.30
2018-12-24T16:27:04.675Z,7.30
2018-12-24T16:29:35.473Z,7.30
2018-12-24T16:32:04.636Z,7.30
2018-12-24T16:34:33.985Z,7.30
2018-12-24T16:37:08.478Z,7.30
2018-12-24T16:39:37.556Z,7.30
2018-12-24T16:42:06.639Z,7.20
2018-12-24T16:44:42.674Z,7.30
2018-12-24T16:47:11.565Z,7.20
2018-12-24T16:49:40.616Z,7.20
2018-12-24T16:52:12.783Z,7.20
2018-12-24T16:54:42.521Z,7.20
2018-12-24T16:57:11.526Z,7.20
2018-12-24T16:59:40.860Z,7.20
2018-12-24T17:02:11.326Z,7.10
2018-12-24T17:04:41.655Z,7.10
2018-12-24T17:07:12.576Z,7.10
2018-12-24T17:09:41.805Z,7.10
2018-12-24T17:12:17.237Z,7.10
2018-12-24T17:14:46.354Z,7.10
2018-12-24T17:17:18.598Z,7.10
2018-12-24T17:19:47.541Z,7.10
2018-12-24T17:22:16.710Z,7.10
2018-12-24T17:24:45.739Z,7.10
2018-12-24T17:27:15.206Z,7.10
2018-12-24T17:29:44.262Z,7.10
2018-12-24T17:32:18.315Z,7.10
2018-12-24T17:34:47.727Z,7.00
2018-12-24T17:37:16.961Z,7.00
2018-12-24T17:39:45.978Z,7.00
2018-12-24T17:42:15.426Z,7.00
2018-12-24T17:44:44.537Z,7.00
2018-12-24T17:47:16.398Z,7.00
2018-12-24T17:49:44.302Z,7.00
2018-12-24T17:52:13.316Z,7.00
2018-12-24T17:54:42.741Z,6.90
2018-12-24T17:57:12.011Z,6.90
2018-12-24T17:59:41.911Z,6.90
2018-12-24T18:02:11.083Z,6.90
2018-12-24T18:04:40.165Z,6.90
2018-12-24T18:07:09.068Z,6.90
2018-12-24T18:09:41.633Z,6.90
2018-12-24T18:12:15.715Z,6.90
2018-12-24T18:14:46.522Z,6.90
2018-12-24T18:17:15.738Z,6.90
2018-12-24T18:19:44.704Z,6.90
2018-12-24T18:22:13.736Z,7.00
2018-12-24T18:24:42.642Z,6.90
2018-12-24T18:27:11.519Z,6.90
2018-12-24T18:29:41.069Z,6.90
2018-12-24T18:32:10.852Z,6.90
2018-12-24T18:34:39.849Z,6.90
2018-12-24T18:37:09.153Z,6.90
2018-12-24T18:39:38.364Z,6.90
2018-12-24T18:42:07.332Z,6.90
2018-12-24T18:44:36.222Z,6.90
2018-12-24T18:47:11.351Z,6.90
2018-12-24T18:49:44.219Z,6.90
2018-12-24T18:52:16.035Z,6.90
2018-12-24T18:54:45.672Z,6.90
2018-12-24T18:57:15.674Z,6.90
2018-12-24T18:59:44.514Z,6.90
2018-12-24T19:02:13.424Z,6.90
2018-12-24T19:04:42.404Z,6.90
2018-12-24T19:07:11.591Z,6.90
2018-12-24T19:09:43.970Z,6.90
2018-12-24T19:12:12.954Z,6.90
2018-12-24T19:14:41.879Z,6.90
2018-12-24T19:17:11.199Z,6.90
2018-12-24T19:19:40.147Z,6.90
2018-12-24T19:22:09.115Z,6.90
2018-12-24T19:24:38.351Z,6.90
2018-12-24T19:27:07.451Z,6.90
2018-12-24T19:29:47.080Z,6.90
2018-12-24T19:32:11.043Z,6.90
2018-12-24T19:34:40.575Z,6.90
2018-12-24T19:37:10.915Z,6.90
2018-12-24T19:39:42.417Z,6.90
2018-12-24T19:42:11.621Z,6.90
2018-12-24T19:44:40.862Z,7.00
2018-12-24T19:47:09.836Z,7.00
2018-12-24T19:49:40.779Z,7.10
2018-12-24T19:52:09.902Z,7.10
2018-12-24T19:54:39.635Z,7.10
2018-12-24T19:57:09.320Z,7.10
2018-12-24T19:59:38.686Z,7.10
2018-12-24T20:02:08.268Z,7.10
2018-12-24T20:04:37.287Z,7.10
2018-12-24T20:07:06.853Z,7.10
2018-12-24T20:09:35.925Z,7.10
2018-12-24T20:12:06.879Z,7.10
2018-12-24T20:14:35.785Z,7.10
2018-12-24T20:17:04.727Z,7.10
2018-12-24T20:19:33.888Z,7.10
2018-12-24T20:22:04.140Z,7.10
2018-12-24T20:24:37.257Z,7.10
2018-12-24T20:27:06.443Z,7.20
2018-12-24T20:29:35.388Z,7.10
2018-12-24T20:32:04.939Z,7.10
2018-12-24T20:34:33.919Z,7.10
2018-12-24T20:37:03.139Z,7.20
2018-12-24T20:39:32.125Z,7.30
2018-12-24T20:42:01.334Z,7.30
2018-12-24T20:44:30.301Z,7.30
2018-12-24T20:47:00.769Z,7.30
2018-12-24T20:49:29.971Z,7.30
2018-12-24T20:51:59.232Z,7.30
2018-12-24T20:54:29.035Z,7.30
2018-12-24T20:57:00.511Z,7.30
2018-12-24T20:59:29.490Z,7.20
2018-12-24T21:02:00.713Z,7.20
2018-12-24T21:04:30.448Z,7.20
2018-12-24T21:06:59.584Z,7.20
2018-12-24T21:09:28.869Z,7.20
2018-12-24T21:11:59.604Z,7.10
2018-12-24T21:14:28.945Z,7.10
2018-12-24T21:16:59.371Z,7.10
2018-12-24T21:19:28.331Z,7.10
2018-12-24T21:21:57.701Z,7.10
2018-12-24T21:24:26.660Z,7.10
2018-12-24T21:26:55.628Z,7.10
2018-12-24T21:29:25.955Z,7.10
2018-12-24T21:31:54.875Z,7.10
2018-12-24T21:34:26.898Z,7.10
2018-12-24T21:36:56.893Z,7.10
2018-12-24T21:39:26.193Z,7.10
2018-12-24T21:41:55.961Z,7.10
2018-12-24T21:44:25.363Z,7.10
2018-12-24T21:46:54.475Z,7.10
2018-12-24T21:49:23.999Z,7.10
2018-12-24T21:51:53.348Z,7.10
2018-12-24T21:54:30.211Z,7.10
2018-12-24T21:56:59.325Z,7.20
2018-12-24T21:59:28.346Z,7.20
2018-12-24T22:01:57.597Z,7.30
2018-12-24T22:04:26.938Z,7.30
2018-12-24T22:06:56.115Z,7.30
2018-12-24T22:09:25.065Z,7.30
2018-12-24T22:11:54.088Z,7.30
2018-12-24T22:14:23.046Z,7.30
2018-12-24T22:16:52.045Z,7.30
2018-12-24T22:19:21.809Z,7.30
2018-12-24T22:21:52.634Z,7.30
2018-12-24T22:24:22.246Z,7.30
2018-12-24T22:26:51.603Z,7.30
2018-12-24T22:29:20.583Z,7.20
2018-12-24T22:31:49.531Z,7.20
2018-12-24T22:34:18.535Z,7.20
2018-12-24T22:36:47.623Z,7.20
2018-12-24T22:39:16.833Z,7.20
2018-12-24T22:41:45.833Z,7.20
2018-12-24T22:44:16.333Z,7.20
2018-12-24T22:46:47.253Z,7.20
2018-12-24T22:49:18.284Z,7.20
2018-12-24T22:51:50.518Z,7.20
2018-12-24T22:54:20.847Z,7.20
2018-12-24T22:56:50.094Z,7.20
2018-12-24T22:59:19.373Z,7.20
2018-12-24T23:01:49.267Z,7.20
2018-12-24T23:04:18.346Z,7.20
2018-12-24T23:06:50.388Z,7.20
2018-12-24T23:09:21.508Z,7.20
2018-12-24T23:11:50.854Z,7.20
2018-12-24T23:14:20.067Z,7.20
2018-12-24T23:16:49.006Z,7.20
2018-12-24T23:19:19.363Z,7.20
2018-12-24T23:21:51.486Z,7.20
2018-12-24T23:24:20.731Z,7.20
2018-12-24T23:26:49.750Z,7.10
2018-12-24T23:29:19.166Z,7.10
2018-12-24T23:31:48.400Z,7.10
2018-12-24T23:34:17.956Z,7.10
2018-12-24T23:36:47.952Z,7.10
2018-12-24T23:39:20.180Z,7.10
2018-12-24T23:41:51.041Z,7.00
2018-12-24T23:44:19.992Z,7.00
2018-12-24T23:46:49.359Z,7.00
2018-12-24T23:49:19.099Z,7.00
2018-12-24T23:51:51.160Z,7.00
2018-12-24T23:54:29.951Z,7.00
2018-12-24T23:56:59.104Z,7.00
2018-12-24T23:59:30.497Z,7.00
